Time;durP1;ratioP1;P1;durP2;ratioP2;P2;SDS_P1;SDS_P2;PMS_P1;PMS_P2;Temp;Humidity;BMP_temperature;BMP_pressure;BME280_temperature;BME280_humidity;BME280_pressure;Samples;Min_cycle;Max_cycle;Signal;HPM_P1;HPM_P2
2021/07/16 00:01:53;;;;;;;3.92;2.30;;;14.40;95.90;;;;;;6218383;23;20058;-89
2021/07/16 00:04:19;;;;;;;3.85;1.92;;;14.40;95.70;;;;;;6192391;23;20009;-89
2021/07/16 00:06:45;;;;;;;4.18;2.47;;;14.40;95.70;;;;;;6218893;23;20366;-89
2021/07/16 00:09:11;;;;;;;3.75;2.22;;;14.30;95.50;;;;;;6193276;23;20371;-89
2021/07/16 00:11:37;;;;;;;4.20;2.47;;;14.30;95.50;;;;;;6192931;23;20086;-90
2021/07/16 00:14:03;;;;;;;4.22;2.30;;;14.30;95.30;;;;;;6192410;23;20405;-90
2021/07/16 00:16:29;;;;;;;3.90;2.30;;;14.30;95.20;;;;;;6217499;23;20079;-89
2021/07/16 00:18:56;;;;;;;4.30;2.50;;;14.20;95.30;;;;;;6219483;23;20027;-89
2021/07/16 00:21:21;;;;;;;4.05;2.05;;;14.20;95.40;;;;;;6219280;23;19996;-90
2021/07/16 00:23:47;;;;;;;3.38;2.05;;;14.10;95.50;;;;;;6192354;23;20062;-89
2021/07/16 00:26:14;;;;;;;4.43;2.40;;;14.00;95.30;;;;;;6218444;23;20001;-89
2021/07/16 00:28:40;;;;;;;3.90;2.20;;;13.90;95.60;;;;;;6218442;23;20032;-89
2021/07/16 00:31:06;;;;;;;3.85;2.30;;;13.90;95.60;;;;;;6217538;23;19996;-89
2021/07/16 00:33:32;;;;;;;5.22;3.20;;;13.80;95.30;;;;;;6192710;23;19996;-89
2021/07/16 00:35:58;;;;;;;6.85;3.38;;;13.90;94.90;;;;;;6218983;23;19996;-89
2021/07/16 00:38:24;;;;;;;5.57;3.45;;;13.80;95.60;;;;;;6218971;23;20051;-89
2021/07/16 00:40:50;;;;;;;5.82;3.63;;;13.80;94.90;;;;;;6218615;23;20005;-89
2021/07/16 00:43:15;;;;;;;6.72;4.03;;;13.80;94.90;;;;;;6218259;23;20027;-88
2021/07/16 00:45:41;;;;;;;6.25;3.55;;;13.70;95.60;;;;;;6217340;23;20000;-88
2021/07/16 00:48:07;;;;;;;6.43;4.10;;;13.60;95.40;;;;;;6218770;23;20001;-89
2021/07/16 00:50:36;;;;;;;8.80;4.90;;;13.60;94.60;;;;;;6218902;23;20003;-89
2021/07/16 00:53:03;;;;;;;7.57;4.38;;;13.70;94.90;;;;;;6218754;23;20103;-89
2021/07/16 00:55:30;;;;;;;6.45;3.17;;;13.60;95.50;;;;;;6192362;23;20005;-89
2021/07/16 00:57:57;;;;;;;5.57;3.50;;;13.50;95.00;;;;;;6218323;23;20031;-89
2021/07/16 01:00:23;;;;;;;5.30;3.10;;;13.50;94.90;;;;;;6217308;23;20009;-89
2021/07/16 01:02:50;;;;;;;6.05;3.05;;;13.50;94.50;;;;;;6217438;23;20007;-89
2021/07/16 01:05:17;;;;;;;5.30;3.08;;;13.60;93.70;;;;;;6189795;23;20083;-88
2021/07/16 01:07:44;;;;;;;8.25;3.28;;;13.80;93.40;;;;;;6216421;23;20012;-89
2021/07/16 01:10:11;;;;;;;5.93;3.38;;;13.90;93.80;;;;;;6216196;23;20366;-88
2021/07/16 01:12:44;;;;;;;5.70;3.25;;;13.90;93.70;;;;;;6216001;23;20020;-88
2021/07/16 01:15:16;;;;;;;9.63;4.90;;;14.00;93.20;;;;;;6215097;23;20005;-89
2021/07/16 01:17:43;;;;;;;6.93;4.03;;;14.10;93.30;;;;;;6216515;23;20383;-89
2021/07/16 01:20:18;;;;;;;7.70;4.80;;;14.20;93.10;;;;;;6190047;23;20317;-90
2021/07/16 01:22:46;;;;;;;7.63;5.65;;;14.20;93.20;;;;;;6216074;23;20378;-91
2021/07/16 01:25:21;;;;;;;10.05;6.28;;;14.20;93.20;;;;;;6216278;23;20082;-90
2021/07/16 01:27:52;;;;;;;12.45;6.97;;;14.20;93.30;;;;;;6215856;23;20024;-89
2021/07/16 01:30:20;;;;;;;8.48;6.03;;;14.20;93.40;;;;;;6217328;23;19997;-91
2021/07/16 01:32:47;;;;;;;10.95;7.43;;;14.20;93.60;;;;;;6219000;23;20046;-91
2021/07/16 01:35:14;;;;;;;8.48;6.10;;;14.20;93.50;;;;;;6190892;23;20382;-87
2021/07/16 01:37:41;;;;;;;9.10;6.15;;;14.30;93.40;;;;;;6218782;23;20354;-87
2021/07/16 01:40:09;;;;;;;9.38;6.20;;;14.30;93.30;;;;;;6218716;23;20396;-87
2021/07/16 01:42:41;;;;;;;9.32;5.95;;;14.40;93.50;;;;;;6192048;23;20012;-87
2021/07/16 01:45:09;;;;;;;10.55;6.65;;;14.40;93.60;;;;;;6216821;23;20035;-88
2021/07/16 01:47:36;;;;;;;11.77;6.32;;;14.40;93.60;;;;;;6192356;23;20443;-86
2021/07/16 01:50:04;;;;;;;10.15;6.45;;;14.40;93.50;;;;;;6218603;23;19997;-87
2021/07/16 01:52:29;;;;;;;10.70;6.32;;;14.40;94.10;;;;;;6191994;23;20024;-87
2021/07/16 01:54:55;;;;;;;9.48;6.57;;;14.40;93.90;;;;;;6217652;23;20369;-86
2021/07/16 01:57:21;;;;;;;9.88;6.93;;;14.40;94.30;;;;;;6218966;23;19997;-87
2021/07/16 01:59:46;;;;;;;8.48;6.22;;;14.40;94.30;;;;;;6216978;23;20011;-86
2021/07/16 02:02:16;;;;;;;7.82;5.63;;;14.50;94.10;;;;;;6218769;23;20032;-88
2021/07/16 02:04:43;;;;;;;11.07;7.35;;;14.50;94.00;;;;;;6191486;23;20005;-89
2021/07/16 02:07:10;;;;;;;11.18;6.00;;;14.50;94.80;;;;;;6191902;23;20008;-87
2021/07/16 02:09:37;;;;;;;10.18;6.40;;;14.50;94.40;;;;;;6219040;23;20004;-89
2021/07/16 02:12:07;;;;;;;15.60;7.93;;;14.50;94.70;;;;;;6220662;23;20009;-89
2021/07/16 02:14:37;;;;;;;10.23;6.32;;;14.50;95.10;;;;;;6218812;23;20000;-88
2021/07/16 02:17:04;;;;;;;9.70;7.18;;;14.60;95.00;;;;;;6219606;23;20013;-89
2021/07/16 02:19:34;;;;;;;7.95;5.95;;;14.50;95.70;;;;;;6220475;23;20000;-89
2021/07/16 02:22:04;;;;;;;10.23;6.97;;;14.50;95.60;;;;;;6220070;23;20015;-89
2021/07/16 02:24:30;;;;;;;9.18;6.75;;;14.60;96.00;;;;;;6220007;23;20004;-90
2021/07/16 02:26:56;;;;;;;10.68;7.50;;;14.60;96.40;;;;;;6220068;23;20058;-89
2021/07/16 02:29:22;;;;;;;12.63;8.68;;;14.50;96.50;;;;;;6220215;23;20026;-89
2021/07/16 02:31:50;;;;;;;8.90;6.25;;;14.50;96.40;;;;;;6218755;23;19997;-89
2021/07/16 02:34:16;;;;;;;9.52;6.45;;;14.50;96.10;;;;;;6220439;23;19997;-89
2021/07/16 02:36:42;;;;;;;9.55;6.57;;;14.60;96.20;;;;;;6220366;23;20007;-89
2021/07/16 02:39:08;;;;;;;9.63;7.32;;;14.60;96.60;;;;;;6193714;23;20028;-89
2021/07/16 02:41:33;;;;;;;9.73;6.97;;;14.60;96.80;;;;;;6220206;23;20011;-90
2021/07/16 02:43:59;;;;;;;9.40;6.07;;;14.50;96.60;;;;;;6219424;23;20011;-89
2021/07/16 02:46:25;;;;;;;9.30;6.68;;;14.60;96.50;;;;;;6192473;23;20279;-89
2021/07/16 02:48:50;;;;;;;11.18;6.70;;;14.60;96.50;;;;;;6219877;23;20001;-88
2021/07/16 02:51:16;;;;;;;8.93;6.65;;;14.60;97.00;;;;;;6220061;23;20024;-89
2021/07/16 02:53:42;;;;;;;8.35;6.40;;;14.60;97.00;;;;;;6219540;23;20051;-89
2021/07/16 02:56:07;;;;;;;10.20;7.45;;;14.50;97.00;;;;;;6193071;23;20055;-89
2021/07/16 02:58:33;;;;;;;10.38;7.68;;;14.60;96.80;;;;;;6219604;23;20001;-89
2021/07/16 03:00:59;;;;;;;10.13;7.82;;;14.50;96.70;;;;;;6218203;23;20001;-89
2021/07/16 03:03:26;;;;;;;10.82;7.43;;;14.50;97.00;;;;;;6219682;23;20339;-89
2021/07/16 03:05:52;;;;;;;9.98;6.57;;;14.40;96.90;;;;;;6219722;23;20005;-89
2021/07/16 03:08:17;;;;;;;10.02;6.65;;;14.30;96.90;;;;;;6192766;23;20012;-89
2021/07/16 03:10:45;;;;;;;10.55;7.30;;;14.30;96.60;;;;;;6219398;23;20297;-89
2021/07/16 03:13:14;;;;;;;11.23;6.97;;;14.30;96.20;;;;;;6219027;23;20012;-89
2021/07/16 03:15:41;;;;;;;14.65;7.30;;;14.40;96.50;;;;;;6217825;23;20001;-89
2021/07/16 03:18:08;;;;;;;8.77;6.68;;;14.40;96.20;;;;;;6219957;23;20285;-89
2021/07/16 03:20:40;;;;;;;10.25;6.72;;;14.40;95.80;;;;;;6218640;23;20016;-90
2021/07/16 03:23:08;;;;;;;13.90;7.90;;;14.40;96.40;;;;;;6220110;23;20262;-89
2021/07/16 03:25:35;;;;;;;11.00;7.53;;;14.40;96.40;;;;;;6219414;23;20019;-89
2021/07/16 03:28:02;;;;;;;13.13;8.32;;;14.40;96.30;;;;;;6193465;23;20008;-90
2021/07/16 03:30:30;;;;;;;14.32;9.98;;;14.40;96.20;;;;;;6217587;23;20000;-90
2021/07/16 03:32:56;;;;;;;12.07;9.43;;;14.40;96.20;;;;;;6219816;23;20301;-89
2021/07/16 03:35:22;;;;;;;11.43;8.07;;;14.40;95.90;;;;;;6193357;23;20008;-88
2021/07/16 03:37:48;;;;;;;13.07;9.25;;;14.40;96.20;;;;;;6219094;23;20005;-89
2021/07/16 03:40:17;;;;;;;10.60;7.75;;;14.50;96.10;;;;;;6192815;23;20005;-88
2021/07/16 03:42:44;;;;;;;10.65;8.35;;;14.40;96.00;;;;;;6219706;23;20273;-88
2021/07/16 03:45:13;;;;;;;11.65;8.23;;;14.50;96.20;;;;;;6217744;23;20001;-88
2021/07/16 03:47:41;;;;;;;11.20;8.25;;;14.50;96.20;;;;;;6218510;23;20004;-88
2021/07/16 03:50:08;;;;;;;14.20;9.38;;;14.50;96.50;;;;;;6192640;23;20005;-87
2021/07/16 03:52:35;;;;;;;13.05;9.13;;;14.40;96.50;;;;;;6219153;23;20259;-88
2021/07/16 03:55:05;;;;;;;12.68;9.27;;;14.50;96.30;;;;;;6219523;23;20024;-88
2021/07/16 03:57:31;;;;;;;10.48;7.57;;;14.50;96.00;;;;;;6219151;23;20313;-88
2021/07/16 03:59:57;;;;;;;11.35;8.45;;;14.50;96.00;;;;;;6216770;23;20028;-88
2021/07/16 04:02:23;;;;;;;12.95;8.77;;;14.50;96.50;;;;;;6218214;23;20438;-88
2021/07/16 04:04:52;;;;;;;17.90;9.27;;;14.60;96.50;;;;;;6219137;23;20008;-87
2021/07/16 04:07:22;;;;;;;10.80;7.65;;;14.60;96.50;;;;;;6218189;23;20084;-87
2021/07/16 04:09:48;;;;;;;14.43;9.57;;;14.60;96.70;;;;;;6218567;23;20362;-87
2021/07/16 04:12:19;;;;;;;10.68;8.30;;;14.60;97.00;;;;;;6218918;23;20135;-87
2021/07/16 04:14:53;;;;;;;13.45;9.23;;;14.70;97.00;;;;;;6218149;23;20102;-89
2021/07/16 04:17:21;;;;;;;10.90;7.70;;;14.70;97.20;;;;;;6218860;23;20007;-90
2021/07/16 04:19:47;;;;;;;10.30;7.07;;;14.70;96.80;;;;;;6219552;23;20032;-89
2021/07/16 04:22:13;;;;;;;10.40;7.25;;;14.80;97.20;;;;;;6219088;23;20004;-88
2021/07/16 04:24:41;;;;;;;13.15;8.18;;;14.80;97.20;;;;;;6219251;23;20004;-88
2021/07/16 04:27:08;;;;;;;11.63;8.73;;;14.80;97.70;;;;;;6218726;23;20032;-89
2021/07/16 04:29:35;;;;;;;10.55;7.78;;;14.80;98.00;;;;;;6217689;23;20051;-87
2021/07/16 04:32:02;;;;;;;20.33;8.27;;;14.80;98.00;;;;;;6218410;23;20008;-87
2021/07/16 04:34:29;;;;;;;12.38;7.95;;;14.80;98.00;;;;;;6193078;23;20075;-87
2021/07/16 04:36:55;;;;;;;19.58;7.93;;;14.90;98.00;;;;;;6192682;23;20007;-88
2021/07/16 04:39:21;;;;;;;12.20;8.32;;;14.90;98.00;;;;;;6218957;23;20001;-87
2021/07/16 04:41:47;;;;;;;15.75;8.18;;;14.90;98.00;;;;;;6192343;23;20009;-87
2021/07/16 04:44:13;;;;;;;12.90;7.93;;;14.90;98.00;;;;;;6218008;23;20087;-85
2021/07/16 04:46:38;;;;;;;12.98;8.95;;;15.00;98.00;;;;;;6216329;23;20001;-86
2021/07/16 04:49:04;;;;;;;12.77;8.43;;;15.10;98.00;;;;;;6217918;23;20035;-87
2021/07/16 04:51:33;;;;;;;12.55;8.55;;;15.10;98.00;;;;;;6217650;23;20075;-87
2021/07/16 04:54:00;;;;;;;11.00;7.90;;;15.00;98.00;;;;;;6191676;23;20004;-86
2021/07/16 04:56:26;;;;;;;11.23;8.07;;;15.10;98.00;;;;;;6218200;23;20430;-86
2021/07/16 04:58:52;;;;;;;15.05;7.72;;;15.20;98.00;;;;;;6218912;23;20359;-87
2021/07/16 05:01:21;;;;;;;10.30;7.55;;;15.20;98.00;;;;;;6216944;23;19996;-87
2021/07/16 05:03:48;;;;;;;10.10;7.88;;;15.20;98.00;;;;;;6218659;23;19997;-86
2021/07/16 05:06:13;;;;;;;12.10;8.23;;;15.40;98.00;;;;;;6192514;23;20004;-86
2021/07/16 05:08:40;;;;;;;11.50;7.22;;;15.30;98.00;;;;;;6218605;23;20319;-87
2021/07/16 05:11:09;;;;;;;12.82;7.57;;;15.40;98.00;;;;;;6217754;23;20004;-87
2021/07/16 05:13:36;;;;;;;11.75;7.32;;;15.40;98.00;;;;;;6218104;23;20012;-87
2021/07/16 05:16:03;;;;;;;10.57;7.10;;;15.40;98.00;;;;;;6217268;23;20004;-86
2021/07/16 05:18:29;;;;;;;10.32;6.97;;;15.30;98.00;;;;;;6219547;23;20039;-87
2021/07/16 05:20:56;;;;;;;12.65;8.10;;;15.30;98.00;;;;;;6218823;23;20363;-87
2021/07/16 05:23:22;;;;;;;12.95;8.63;;;15.30;98.00;;;;;;6192200;23;20379;-87
2021/07/16 05:25:48;;;;;;;13.43;8.45;;;15.20;98.00;;;;;;6218772;23;20031;-86
2021/07/16 05:28:14;;;;;;;11.15;8.23;;;15.20;98.00;;;;;;6218863;23;19997;-86
2021/07/16 05:30:39;;;;;;;11.95;7.70;;;15.20;98.00;;;;;;6217641;23;20004;-87
2021/07/16 05:33:05;;;;;;;13.35;7.68;;;15.20;98.00;;;;;;6218645;23;20266;-86
2021/07/16 05:35:31;;;;;;;11.35;7.15;;;15.30;98.00;;;;;;6219264;23;20011;-86
2021/07/16 05:37:56;;;;;;;9.65;6.72;;;15.40;98.00;;;;;;6218350;23;20267;-87
2021/07/16 05:40:22;;;;;;;10.75;6.22;;;15.60;98.00;;;;;;6218344;23;20075;-86
2021/07/16 05:42:48;;;;;;;12.15;6.40;;;15.80;98.00;;;;;;6192604;23;20004;-86
2021/07/16 05:45:14;;;;;;;8.82;5.70;;;15.80;98.00;;;;;;6218722;23;20011;-86
2021/07/16 05:47:39;;;;;;;9.88;6.55;;;15.80;98.00;;;;;;6220921;23;20008;-86
2021/07/16 05:50:06;;;;;;;9.75;5.90;;;15.90;98.00;;;;;;6194931;23;20055;-86
2021/07/16 05:52:32;;;;;;;8.13;4.90;;;16.00;98.00;;;;;;6221079;23;20001;-86
2021/07/16 05:54:58;;;;;;;8.00;5.78;;;15.90;98.00;;;;;;6194671;23;20001;-86
2021/07/16 05:57:24;;;;;;;8.23;6.25;;;16.00;98.00;;;;;;6220682;23;20266;-86
2021/07/16 05:59:50;;;;;;;8.20;5.22;;;16.00;98.00;;;;;;6219363;23;20007;-86
2021/07/16 06:02:16;;;;;;;10.50;6.38;;;16.00;98.00;;;;;;6220764;23;20384;-86
2021/07/16 06:04:41;;;;;;;9.48;5.75;;;16.00;98.00;;;;;;6220822;23;20000;-86
2021/07/16 06:07:07;;;;;;;8.45;5.38;;;16.00;98.00;;;;;;6220430;23;20004;-86
2021/07/16 06:09:33;;;;;;;7.72;5.25;;;15.90;98.00;;;;;;6220569;23;20005;-86
2021/07/16 06:11:58;;;;;;;9.13;5.15;;;15.90;98.00;;;;;;6220541;23;19996;-86
2021/07/16 06:14:24;;;;;;;8.25;5.97;;;15.90;98.00;;;;;;6220602;23;20001;-86
2021/07/16 06:16:50;;;;;;;8.48;6.28;;;15.80;98.00;;;;;;6220253;23;20008;-87
2021/07/16 06:19:17;;;;;;;10.85;6.97;;;15.70;98.00;;;;;;6194096;23;20012;-87
2021/07/16 06:21:42;;;;;;;10.40;5.85;;;15.70;98.00;;;;;;6220472;23;20019;-86
2021/07/16 06:24:08;;;;;;;8.35;5.93;;;15.70;98.00;;;;;;6194076;23;20266;-86
2021/07/16 06:26:35;;;;;;;10.07;6.63;;;15.80;98.00;;;;;;6220395;23;20417;-87
2021/07/16 06:29:02;;;;;;;9.90;7.07;;;15.80;98.00;;;;;;6220458;23;20027;-87
2021/07/16 06:31:28;;;;;;;9.80;7.35;;;15.90;98.00;;;;;;6218834;23;20052;-86
2021/07/16 06:33:54;;;;;;;11.35;8.07;;;16.00;98.00;;;;;;6219941;23;20024;-87
2021/07/16 06:36:23;;;;;;;10.32;7.53;;;16.10;98.00;;;;;;6220405;23;20004;-87
2021/07/16 06:38:48;;;;;;;8.93;6.80;;;16.10;98.00;;;;;;6220303;23;20008;-87
2021/07/16 06:41:14;;;;;;;9.45;6.93;;;16.00;98.00;;;;;;6219943;23;20306;-87
2021/07/16 06:43:40;;;;;;;10.40;7.18;;;16.00;98.00;;;;;;6220216;23;20026;-86
2021/07/16 06:46:08;;;;;;;12.85;7.57;;;15.80;98.00;;;;;;6218833;23;20367;-86
2021/07/16 06:48:34;;;;;;;11.82;8.18;;;15.70;98.00;;;;;;6220235;23;19997;-86
2021/07/16 06:51:03;;;;;;;11.40;7.63;;;15.70;98.00;;;;;;6193412;23;20062;-85
2021/07/16 06:53:29;;;;;;;12.88;8.68;;;15.60;98.00;;;;;;6220186;23;20008;-86
2021/07/16 06:55:54;;;;;;;14.98;10.55;;;15.50;98.00;;;;;;6193363;23;20000;-84
2021/07/16 06:58:20;;;;;;;13.88;9.75;;;15.40;98.00;;;;;;6193747;23;20001;-83
2021/07/16 07:00:47;;;;;;;14.90;9.98;;;15.30;98.00;;;;;;6219033;23;20091;-83
2021/07/16 07:03:13;;;;;;;12.27;8.40;;;15.30;98.00;;;;;;6193854;23;20059;-83
2021/07/16 07:05:39;;;;;;;12.02;8.77;;;15.20;98.00;;;;;;6219685;23;20009;-82
2021/07/16 07:08:07;;;;;;;16.48;9.52;;;15.30;98.00;;;;;;6220288;23;20055;-82
2021/07/16 07:10:33;;;;;;;14.55;10.02;;;15.30;98.00;;;;;;6219824;23;20005;-86
2021/07/16 07:13:03;;;;;;;15.70;10.48;;;15.40;98.00;;;;;;6220254;23;20019;-85
2021/07/16 07:15:29;;;;;;;19.80;12.55;;;15.30;98.00;;;;;;6218767;23;20367;-86
2021/07/16 07:17:55;;;;;;;18.63;10.82;;;15.40;98.00;;;;;;6193588;23;20011;-86
2021/07/16 07:20:20;;;;;;;20.70;11.55;;;15.50;98.00;;;;;;6220159;23;20064;-86
2021/07/16 07:22:46;;;;;;;16.25;11.73;;;15.50;98.00;;;;;;6193718;23;20270;-86
2021/07/16 07:25:12;;;;;;;20.52;13.15;;;15.60;97.80;;;;;;6193586;23;20366;-86
2021/07/16 07:27:38;;;;;;;18.70;11.82;;;15.70;98.00;;;;;;6220030;23;20089;-86
2021/07/16 07:30:05;;;;;;;15.25;11.73;;;15.70;98.00;;;;;;6192021;23;20001;-86
2021/07/16 07:32:31;;;;;;;15.85;11.57;;;15.80;98.00;;;;;;6220101;23;20008;-87
2021/07/16 07:34:57;;;;;;;20.05;11.18;;;16.00;98.00;;;;;;6219388;23;20354;-87
2021/07/16 07:37:26;;;;;;;14.85;10.30;;;16.40;98.00;;;;;;6193556;23;20020;-87
2021/07/16 07:39:51;;;;;;;16.73;10.27;;;16.50;98.00;;;;;;6219856;23;20369;-87
2021/07/16 07:42:21;;;;;;;16.27;9.68;;;16.60;98.00;;;;;;6193828;23;20004;-87
2021/07/16 07:44:48;;;;;;;11.15;8.13;;;17.10;98.00;;;;;;6218391;23;20005;-88
2021/07/16 07:47:14;;;;;;;10.95;7.68;;;17.40;98.00;;;;;;6193047;23;20009;-88
2021/07/16 07:49:40;;;;;;;11.18;7.78;;;17.40;98.00;;;;;;6219374;23;20317;-86
2021/07/16 07:52:06;;;;;;;12.30;8.60;;;17.30;98.00;;;;;;6219697;23;20008;-87
2021/07/16 07:54:33;;;;;;;10.43;7.47;;;17.00;98.00;;;;;;6219616;23;20004;-87
2021/07/16 07:56:59;;;;;;;11.05;7.95;;;16.90;98.00;;;;;;6219678;23;20012;-88
2021/07/16 07:59:25;;;;;;;18.98;9.95;;;16.70;98.00;;;;;;6219008;23;20005;-87
2021/07/16 08:01:51;;;;;;;12.27;8.85;;;16.50;98.00;;;;;;6218570;23;20338;-86
2021/07/16 08:04:17;;;;;;;10.07;6.80;;;16.50;98.00;;;;;;6219562;23;20091;-87
2021/07/16 08:06:43;;;;;;;10.80;7.20;;;16.90;98.00;;;;;;6219437;23;20000;-88
2021/07/16 08:09:10;;;;;;;11.32;6.93;;;17.30;98.00;;;;;;6219702;23;20001;-87
2021/07/16 08:11:35;;;;;;;10.70;7.38;;;17.90;98.00;;;;;;6219612;23;20028;-88
2021/07/16 08:14:01;;;;;;;11.63;6.85;;;18.10;97.80;;;;;;6219516;23;20326;-87
2021/07/16 08:16:27;;;;;;;10.70;6.05;;;18.40;96.40;;;;;;6217849;23;20000;-88
2021/07/16 08:18:53;;;;;;;10.75;7.90;;;18.40;97.00;;;;;;6219220;23;20028;-88
2021/07/16 08:21:23;;;;;;;9.73;7.80;;;18.40;97.30;;;;;;6219445;23;20004;-88
2021/07/16 08:23:49;;;;;;;13.02;8.95;;;18.50;97.00;;;;;;6193130;23;20091;-87
2021/07/16 08:26:15;;;;;;;10.77;8.18;;;18.00;96.60;;;;;;6219143;23;20000;-83
2021/07/16 08:28:41;;;;;;;13.27;9.15;;;17.60;97.60;;;;;;6219275;23;20004;-87
2021/07/16 08:31:07;;;;;;;14.27;10.15;;;17.50;97.30;;;;;;6217672;23;20362;-87
2021/07/16 08:33:33;;;;;;;13.73;9.35;;;17.60;97.40;;;;;;6219800;23;20003;-88
2021/07/16 08:35:59;;;;;;;14.20;8.52;;;18.10;97.60;;;;;;6219139;23;20024;-88
2021/07/16 08:38:25;;;;;;;11.88;8.10;;;18.80;96.90;;;;;;6218735;23;20263;-88
2021/07/16 08:40:51;;;;;;;14.68;9.27;;;19.40;95.80;;;;;;6219251;23;19996;-87
2021/07/16 08:43:19;;;;;;;11.23;8.02;;;19.50;95.20;;;;;;6218608;23;20303;-88
2021/07/16 08:45:46;;;;;;;13.75;7.88;;;19.50;94.80;;;;;;6217861;23;20385;-87
2021/07/16 08:48:13;;;;;;;10.90;8.00;;;19.90;95.10;;;;;;6218685;23;20015;-87
2021/07/16 08:50:39;;;;;;;10.15;7.45;;;20.40;93.60;;;;;;6219101;23;20005;-89
2021/07/16 08:53:06;;;;;;;9.88;7.38;;;20.40;92.70;;;;;;6218944;23;20046;-88
2021/07/16 08:55:35;;;;;;;9.48;7.18;;;20.40;92.30;;;;;;6219243;23;20537;-88
2021/07/16 08:58:02;;;;;;;8.25;6.18;;;20.20;92.70;;;;;;6219046;23;20005;-88
2021/07/16 09:00:28;;;;;;;8.38;6.85;;;19.90;93.60;;;;;;6191220;23;20079;-88
2021/07/16 09:02:56;;;;;;;9.95;7.32;;;19.80;94.00;;;;;;6192577;23;20043;-88
2021/07/16 09:05:37;;;;;;;13.57;7.63;;;19.60;93.30;;;;;;6218940;23;20016;-86
2021/07/16 09:08:04;;;;;;;9.15;6.80;;;19.00;94.80;;;;;;6218714;23;20004;-89
2021/07/16 09:10:30;;;;;;;9.88;7.75;;;18.90;95.70;;;;;;6219134;23;20000;-89
2021/07/16 09:13:01;;;;;;;14.25;9.40;;;18.90;95.90;;;;;;6218753;23;20017;-89
2021/07/16 09:15:27;;;;;;;10.30;7.70;;;18.80;95.10;;;;;;6217854;23;20016;-89
2021/07/16 09:18:21;;;;;;;11.70;8.68;;;18.90;95.70;;;;;;6218880;23;20050;-88
2021/07/16 09:20:49;;;;;;;9.43;6.15;;;19.20;95.50;;;;;;6221243;23;20058;-89
2021/07/16 09:23:17;;;;;;;10.02;7.70;;;19.60;94.80;;;;;;6194877;23;20004;-89
2021/07/16 09:25:45;;;;;;;8.32;5.75;;;19.90;94.40;;;;;;6221121;23;20001;-90
2021/07/16 09:28:27;;;;;;;9.25;6.75;;;20.70;94.00;;;;;;6194501;23;20087;-90
2021/07/16 09:31:07;;;;;;;7.90;4.78;;;22.10;92.00;;;;;;6219540;23;20004;-91
2021/07/16 09:33:48;;;;;;;7.85;5.32;;;24.20;83.50;;;;;;6220758;23;19997;-90
2021/07/16 09:36:33;;;;;;;8.70;5.75;;;25.10;79.80;;;;;;6220558;23;19993;-90
2021/07/16 09:39:06;;;;;;;7.70;5.25;;;24.20;80.40;;;;;;6221498;23;20004;-90
2021/07/16 09:41:32;;;;;;;7.30;5.30;;;24.00;82.30;;;;;;6194851;23;20010;-90
2021/07/16 09:44:03;;;;;;;7.43;4.88;;;23.50;82.50;;;;;;6220708;23;20022;-89
2021/07/16 09:46:29;;;;;;;7.35;4.13;;;22.90;84.10;;;;;;6219063;23;20001;-90
2021/07/16 09:49:13;;;;;;;6.93;3.92;;;22.80;86.10;;;;;;6221014;23;20005;-91
2021/07/16 09:51:43;;;;;;;4.95;2.90;;;23.30;83.60;;;;;;6194464;23;20004;-90
2021/07/16 09:54:12;;;;;;;7.07;3.28;;;24.40;80.70;;;;;;6220970;23;20012;-89
2021/07/16 09:56:38;;;;;;;6.07;3.65;;;24.90;78.90;;;;;;6220525;23;20004;-90
2021/07/16 09:59:17;;;;;;;5.40;3.83;;;24.30;79.80;;;;;;6221008;23;20078;-89
2021/07/16 10:01:47;;;;;;;7.15;4.82;;;23.70;83.20;;;;;;6219831;23;20011;-91
2021/07/16 10:04:21;;;;;;;5.80;4.38;;;24.10;80.40;;;;;;6220149;23;20071;-92
2021/07/16 10:06:49;;;;;;;8.20;3.40;;;24.10;81.70;;;;;;6220777;23;20080;-93
2021/07/16 10:09:18;;;;;;;5.78;3.20;;;25.20;80.30;;;;;;6194248;23;20075;-92
2021/07/16 10:12:00;;;;;;;6.13;4.38;;;27.10;75.20;;;;;;6194843;23;20393;-92
2021/07/16 10:14:25;;;;;;;6.65;3.38;;;26.90;72.60;;;;;;6219809;23;20008;-92
2021/07/16 10:16:52;;;;;;;5.57;2.90;;;25.40;77.80;;;;;;6194286;23;20039;-92
2021/07/16 10:19:18;;;;;;;6.88;3.25;;;25.50;78.80;;;;;;6194601;23;20269;-90
2021/07/16 10:21:49;;;;;;;4.75;3.00;;;25.70;76.30;;;;;;6220474;23;20254;-91
2021/07/16 10:24:19;;;;;;;7.25;4.63;;;24.20;79.10;;;;;;6220455;23;20005;-90
2021/07/16 10:26:47;;;;;;;5.40;3.45;;;24.00;79.60;;;;;;6194108;23;20055;-90
2021/07/16 10:29:34;;;;;;;8.23;4.28;;;23.80;81.20;;;;;;6194317;23;19997;-91
2021/07/16 10:32:12;;;;;;;6.28;4.10;;;23.50;82.00;;;;;;6220400;23;20071;-91
2021/07/16 10:34:40;;;;;;;7.65;3.92;;;22.80;83.30;;;;;;6220350;23;20000;-90
2021/07/16 10:37:11;;;;;;;7.97;3.95;;;22.60;83.60;;;;;;6220281;23;20011;-92
2021/07/16 10:39:42;;;;;;;6.32;4.18;;;22.50;83.80;;;;;;6220377;23;20391;-91
2021/07/16 10:42:27;;;;;;;7.70;4.50;;;22.20;85.00;;;;;;6194333;23;20074;-91
2021/07/16 10:44:58;;;;;;;11.30;4.63;;;22.00;87.00;;;;;;6218576;23;20009;-92
2021/07/16 10:47:42;;;;;;;6.85;4.63;;;21.60;87.70;;;;;;6194153;23;20004;-91
2021/07/16 10:50:28;;;;;;;7.82;5.00;;;21.40;87.50;;;;;;6220651;23;20000;-92
2021/07/16 10:52:53;;;;;;;6.00;4.20;;;21.30;90.10;;;;;;6209032;23;20058;-91
2021/07/16 10:55:40;;;;;;;8.75;6.13;;;21.60;87.80;;;;;;6220055;23;20039;-91
2021/07/16 10:58:19;;;;;;;7.85;4.38;;;21.40;87.90;;;;;;6209075;23;20009;-91
2021/07/16 11:00:54;;;;;;;9.07;5.40;;;21.10;89.50;;;;;;6218798;23;20004;-90
2021/07/16 11:03:21;;;;;;;7.13;4.80;;;21.30;89.00;;;;;;6193463;23;20011;-90
2021/07/16 11:05:47;;;;;;;6.15;4.07;;;21.30;88.70;;;;;;6193828;23;20321;-91
2021/07/16 11:08:34;;;;;;;7.28;4.60;;;21.50;88.30;;;;;;6219642;23;20059;-90
2021/07/16 11:11:33;;;;;;;11.77;5.57;;;21.50;87.70;;;;;;6219037;23;20001;-90
2021/07/16 11:14:02;;;;;;;7.65;4.88;;;21.20;89.20;;;;;;6219800;23;20020;-89
2021/07/16 11:16:27;;;;;;;6.00;3.80;;;21.10;90.00;;;;;;6218560;23;20000;-90
2021/07/16 11:19:09;;;;;;;8.98;4.65;;;21.50;89.90;;;;;;6219899;23;20051;-90
2021/07/16 11:21:46;;;;;;;7.03;4.10;;;22.10;87.60;;;;;;6192825;23;20013;-89
2021/07/16 11:24:15;;;;;;;6.70;4.10;;;22.30;85.70;;;;;;6218539;23;20043;-90
2021/07/16 11:26:52;;;;;;;7.03;4.35;;;22.80;85.30;;;;;;6218242;23;20004;-90
2021/07/16 11:29:21;;;;;;;6.13;3.85;;;23.00;83.50;;;;;;6219546;23;20001;-91
2021/07/16 11:31:47;;;;;;;6.85;3.67;;;23.40;83.10;;;;;;6218027;23;20022;-91
2021/07/16 11:34:17;;;;;;;8.27;3.30;;;23.70;82.90;;;;;;6218591;23;20001;-90
2021/07/16 11:36:54;;;;;;;4.65;3.05;;;24.50;80.20;;;;;;6218591;23;20000;-90
2021/07/16 11:39:36;;;;;;;7.07;3.70;;;24.90;80.00;;;;;;6219572;23;20004;-91
2021/07/16 11:42:04;;;;;;;5.75;3.47;;;24.90;77.00;;;;;;6219403;23;19996;-91
2021/07/16 11:44:41;;;;;;;4.88;2.78;;;24.50;76.60;;;;;;6192166;23;20366;-91
2021/07/16 11:47:18;;;;;;;4.28;2.15;;;24.40;75.20;;;;;;6219204;23;20004;-90
2021/07/16 11:49:45;;;;;;;4.63;2.50;;;24.60;78.30;;;;;;6219445;23;20367;-92
2021/07/16 11:52:17;;;;;;;4.20;2.55;;;25.00;77.00;;;;;;6219786;23;20004;-91
2021/07/16 11:54:44;;;;;;;4.25;2.40;;;25.50;74.90;;;;;;6219277;23;20259;-91
2021/07/16 11:57:10;;;;;;;3.53;2.30;;;25.20;75.80;;;;;;6219545;23;20390;-90
2021/07/16 11:59:35;;;;;;;5.45;2.40;;;24.40;77.40;;;;;;6218073;23;20072;-90
2021/07/16 12:02:13;;;;;;;4.07;2.30;;;24.20;78.30;;;;;;6192987;23;20366;-90
2021/07/16 12:04:41;;;;;;;5.47;2.70;;;24.40;77.70;;;;;;6193282;23;20058;-90
2021/07/16 12:07:09;;;;;;;4.50;2.60;;;24.30;78.50;;;;;;6219432;23;20005;-91
2021/07/16 12:09:41;;;;;;;4.60;2.95;;;23.70;80.00;;;;;;6219360;23;20386;-90
2021/07/16 12:12:15;;;;;;;5.93;3.00;;;23.20;80.60;;;;;;6219593;23;20004;-89
2021/07/16 12:14:50;;;;;;;4.63;2.75;;;22.90;82.80;;;;;;6218125;23;20000;-89
2021/07/16 12:17:25;;;;;;;5.88;2.80;;;23.00;81.20;;;;;;6219403;23;20008;-89
2021/07/16 12:19:51;;;;;;;5.20;2.60;;;22.80;82.00;;;;;;6192920;23;20009;-89
2021/07/16 12:22:25;;;;;;;4.50;2.50;;;23.00;83.90;;;;;;6219179;23;20004;-88
2021/07/16 12:24:51;;;;;;;5.10;2.22;;;23.40;81.70;;;;;;6219184;23;20008;-89
2021/07/16 12:27:19;;;;;;;4.15;2.38;;;23.90;79.50;;;;;;6218920;23;20011;-89
2021/07/16 12:29:54;;;;;;;4.00;2.20;;;24.50;78.20;;;;;;6218282;23;20001;-91
2021/07/16 12:32:34;;;;;;;4.68;2.50;;;24.30;76.50;;;;;;6219278;23;20003;-90
2021/07/16 12:35:00;;;;;;;3.83;2.20;;;24.10;78.50;;;;;;6219176;23;20258;-90
2021/07/16 12:37:36;;;;;;;3.90;2.30;;;24.40;77.30;;;;;;6192896;23;20005;-89
2021/07/16 12:40:05;;;;;;;3.92;2.45;;;24.50;77.70;;;;;;6192784;23;20004;-91
2021/07/16 12:42:31;;;;;;;6.38;2.20;;;24.50;78.80;;;;;;6219262;23;20403;-89
2021/07/16 12:45:02;;;;;;;3.97;2.15;;;24.20;78.10;;;;;;6217513;23;20002;-89
2021/07/16 12:47:29;;;;;;;8.85;2.55;;;23.90;79.80;;;;;;6193146;23;20034;-89